createdAt,value
2023-04-10T00:01:57.366Z,94.69
2023-04-10T00:06:59.176Z,94.67
2023-04-10T00:12:01.116Z,94.13
2023-04-10T00:17:04.243Z,95.08
2023-04-10T00:22:06.126Z,95.21
2023-04-10T00:27:07.826Z,95.13
2023-04-10T00:32:11.023Z,94.96
2023-04-10T00:37:12.787Z,94.77
2023-04-10T00:42:14.487Z,94.88
2023-04-10T00:47:17.827Z,95.08
2023-04-10T00:52:19.613Z,95.46
2023-04-10T00:57:21.356Z,94.87
2023-04-10T01:02:24.814Z,95.13
2023-04-10T01:07:31.141Z,95.15
2023-04-10T01:12:48.380Z,95.08
2023-04-10T01:17:54.502Z,94.66
2023-04-10T01:23:10.037Z,94.30
2023-04-10T01:28:21.559Z,94.11
2023-04-10T01:33:29.251Z,93.70
2023-04-10T01:38:31.150Z,93.77
2023-04-10T01:43:33.106Z,94.27
2023-04-10T01:48:36.202Z,93.65
2023-04-10T01:53:37.961Z,93.65
2023-04-10T01:58:40.526Z,93.78
2023-04-10T02:03:43.896Z,92.87
2023-04-10T02:08:51.195Z,91.57
2023-04-10T02:13:53.096Z,91.63
2023-04-10T02:18:56.747Z,92.74
2023-04-10T02:23:58.498Z,93.87
2023-04-10T02:29:00.240Z,94.78
2023-04-10T02:34:04.372Z,95.48
2023-04-10T02:39:06.393Z,95.53
2023-04-10T02:44:08.084Z,95.41
2023-04-10T02:49:11.601Z,95.98
2023-04-10T02:54:13.380Z,95.51
2023-04-10T02:59:16.556Z,95.05
2023-04-10T03:04:20.057Z,94.54
2023-04-10T03:09:22.195Z,94.92
2023-04-10T03:14:24.316Z,95.56
2023-04-10T03:19:28.013Z,95.89
2023-04-10T03:24:30.293Z,96.57
2023-04-10T03:29:32.768Z,95.84
2023-04-10T03:34:36.558Z,96.36
2023-04-10T03:39:38.312Z,96.33
2023-04-10T03:44:40.218Z,96.13
2023-04-10T03:49:44.380Z,96.34
2023-04-10T03:54:46.441Z,97.04
2023-04-10T03:59:58.502Z,97.47
2023-04-10T04:05:03.615Z,97.95
2023-04-10T04:10:18.404Z,98.05
2023-04-10T04:15:28.631Z,97.71
2023-04-10T04:21:01.537Z,97.89
2023-04-10T04:26:27.046Z,98.00
2023-04-10T04:31:39.255Z,98.31
2023-04-10T04:37:02.975Z,98.01
2023-04-10T04:42:10.568Z,98.12
2023-04-10T04:47:15.268Z,97.91
2023-04-10T04:52:37.103Z,98.15
2023-04-10T04:57:52.208Z,97.65
2023-04-10T05:03:02.064Z,97.87
2023-04-10T05:08:12.735Z,97.43
2023-04-10T05:13:29.149Z,96.67
2023-04-10T05:18:57.644Z,96.36
2023-04-10T05:24:21.509Z,95.61
2023-04-10T05:29:45.840Z,95.08
2023-04-10T05:35:12.572Z,94.13
2023-04-10T05:40:34.608Z,93.75
2023-04-10T05:45:54.901Z,93.15
2023-04-10T05:51:22.896Z,92.08
2023-04-10T05:56:42.504Z,90.90
2023-04-10T06:02:11.991Z,87.33
2023-04-10T06:07:14.448Z,74.86
2023-04-10T06:12:17.552Z,73.21
2023-04-10T06:17:21.212Z,71.98
2023-04-10T06:22:23.136Z,67.06
2023-04-10T06:27:27.112Z,62.56
2023-04-10T06:32:28.818Z,61.89
2023-04-10T06:37:33.398Z,63.65
2023-04-10T06:42:38.783Z,62.99
2023-04-10T06:47:49.021Z,61.96
2023-04-10T06:52:53.066Z,61.33
2023-04-10T06:57:56.513Z,58.91
2023-04-10T07:02:58.229Z,56.75
2023-04-10T07:07:59.918Z,56.11
2023-04-10T07:13:03.071Z,53.69
2023-04-10T07:18:05.577Z,52.04
2023-04-10T07:23:07.312Z,52.59
2023-04-10T07:28:10.611Z,50.36
2023-04-10T07:33:12.541Z,46.73
2023-04-10T07:38:14.366Z,45.15
2023-04-10T07:43:17.408Z,43.57
2023-04-10T07:48:19.497Z,40.38
2023-04-10T07:53:21.218Z,36.90
2023-04-10T07:58:24.232Z,34.56
2023-04-10T08:03:26.482Z,33.25
2023-04-10T08:08:28.289Z,32.40
2023-04-10T08:13:31.283Z,30.38
2023-04-10T08:18:32.933Z,27.46
2023-04-10T08:23:34.596Z,25.86
2023-04-10T08:28:38.098Z,25.46
2023-04-10T08:33:39.778Z,24.78
2023-04-10T08:38:41.487Z,24.40
2023-04-10T08:43:46.004Z,23.02
2023-04-10T08:48:48.623Z,23.40
2023-04-10T08:53:51.341Z,23.26
2023-04-10T08:58:54.354Z,23.10
2023-04-10T09:03:56.593Z,22.43
2023-04-10T09:14:03.916Z,20.72
2023-04-10T09:19:06.627Z,21.02
2023-04-10T09:24:09.412Z,21.28
2023-04-10T09:29:12.487Z,20.06
2023-04-10T09:34:14.772Z,20.07
2023-04-10T09:39:16.628Z,19.99
2023-04-10T09:44:27.913Z,20.68
2023-04-10T09:49:29.569Z,20.93
2023-04-10T09:54:35.898Z,19.79
2023-04-10T09:59:41.220Z,19.57
2023-04-10T10:04:43.684Z,19.20
2023-04-10T10:09:46.755Z,18.97
2023-04-10T10:14:54.247Z,21.04
2023-04-10T10:19:59.328Z,20.54
2023-04-10T10:25:01.075Z,21.96
2023-04-10T10:30:12.052Z,21.26
2023-04-10T10:35:23.742Z,20.44
2023-04-10T10:40:28.688Z,19.92
2023-04-10T10:45:34.805Z,19.25
2023-04-10T10:50:57.572Z,19.08
2023-04-10T10:55:59.353Z,19.48
2023-04-10T11:01:10.345Z,19.08
2023-04-10T11:06:12.941Z,19.06
2023-04-10T11:11:16.407Z,20.05
2023-04-10T11:16:20.024Z,24.12
2023-04-10T11:21:22.591Z,28.23
2023-04-10T11:26:41.987Z,29.24
2023-04-10T11:31:45.445Z,30.14
2023-04-10T11:36:48.009Z,31.70
2023-04-10T11:41:50.392Z,32.44
2023-04-10T11:46:53.732Z,33.50
2023-04-10T11:51:55.701Z,34.42
2023-04-10T11:56:58.839Z,34.65
2023-04-10T12:02:06.357Z,35.15
2023-04-10T12:07:08.142Z,35.85
2023-04-10T12:12:09.887Z,35.29
2023-04-10T12:17:13.137Z,36.68
2023-04-10T12:22:14.869Z,36.78
2023-04-10T12:27:17.552Z,36.11
2023-04-10T12:32:20.755Z,33.79
2023-04-10T12:37:22.605Z,32.50
2023-04-10T12:42:25.746Z,32.39
2023-04-10T12:47:29.013Z,32.58
2023-04-10T12:52:30.914Z,32.64
2023-04-10T12:57:32.587Z,31.83
2023-04-10T13:02:36.089Z,31.66
2023-04-10T13:07:37.910Z,32.85
2023-04-10T13:12:40.652Z,33.87
2023-04-10T13:17:43.762Z,33.82
2023-04-10T13:22:45.495Z,33.04
2023-04-10T13:27:47.173Z,33.98
2023-04-10T13:32:50.347Z,34.26
2023-04-10T13:37:54.118Z,34.71
2023-04-10T13:42:55.848Z,35.71
2023-04-10T13:47:58.969Z,36.15
2023-04-10T13:53:00.699Z,35.33
2023-04-10T13:58:02.382Z,35.40
2023-04-10T14:03:06.021Z,35.84
2023-04-10T14:08:11.541Z,35.74
2023-04-10T14:13:13.225Z,35.30
2023-04-10T14:18:18.258Z,35.54
2023-04-10T14:23:20.446Z,36.17
2023-04-10T14:28:22.150Z,36.51
2023-04-10T14:33:25.408Z,36.95
2023-04-10T14:38:27.144Z,37.29
2023-04-10T14:43:28.912Z,37.75
2023-04-10T14:48:32.032Z,37.54
2023-04-10T14:53:34.136Z,37.79
2023-04-10T14:58:35.972Z,37.88
2023-04-10T15:03:39.895Z,37.26
2023-04-10T15:08:41.873Z,37.10
2023-04-10T15:13:43.582Z,36.76
2023-04-10T15:18:48.680Z,36.46
2023-04-10T15:23:50.509Z,36.83
2023-04-10T15:28:52.374Z,36.71
2023-04-10T15:33:55.706Z,36.80
2023-04-10T15:38:59.677Z,36.58
2023-04-10T15:44:01.484Z,36.98
2023-04-10T15:49:04.586Z,37.21
2023-04-10T15:54:06.329Z,37.21
2023-04-10T15:59:08.032Z,37.38
2023-04-10T16:04:11.131Z,37.64
2023-04-10T16:09:24.828Z,38.36
2023-04-10T16:14:27.861Z,38.29
2023-04-10T16:19:31.543Z,38.41
2023-04-10T16:24:33.279Z,38.35
2023-04-10T16:29:35.184Z,39.00
2023-04-10T16:34:38.202Z,38.72
2023-04-10T16:39:39.936Z,38.70
2023-04-10T16:44:41.657Z,39.06
2023-04-10T16:49:45.808Z,39.32
2023-04-10T16:54:47.496Z,38.98
2023-04-10T16:59:49.198Z,39.39
2023-04-10T17:04:54.349Z,39.05
2023-04-10T17:09:56.318Z,39.36
2023-04-10T17:14:57.993Z,40.05
2023-04-10T17:20:01.083Z,40.92
2023-04-10T17:25:02.833Z,41.62
2023-04-10T17:30:05.738Z,41.85
2023-04-10T17:35:09.533Z,41.89
2023-04-10T17:40:12.249Z,42.29
2023-04-10T17:45:14.359Z,42.65
2023-04-10T17:50:18.104Z,42.57
2023-04-10T17:55:21.264Z,43.19
2023-04-10T18:00:23.823Z,43.42
2023-04-10T18:05:27.050Z,44.01
2023-04-10T18:10:28.869Z,44.09
2023-04-10T18:15:30.646Z,44.31
2023-04-10T18:20:34.591Z,44.60
2023-04-10T18:25:36.453Z,45.30
2023-04-10T18:30:39.120Z,45.25
2023-04-10T18:35:42.498Z,45.58
2023-04-10T18:40:44.544Z,45.83
2023-04-10T18:45:46.381Z,46.24
2023-04-10T18:50:50.955Z,46.18
2023-04-10T18:55:54.137Z,46.24
2023-04-10T19:00:55.867Z,46.60
2023-04-10T19:05:58.903Z,46.71
2023-04-10T19:11:03.762Z,47.20
2023-04-10T19:16:06.248Z,47.08
2023-04-10T19:21:09.397Z,47.24
2023-04-10T19:26:11.166Z,47.45
2023-04-10T19:31:12.981Z,47.43
2023-04-10T19:36:18.117Z,47.65
2023-04-10T19:41:19.896Z,47.75
2023-04-10T19:46:21.907Z,47.89
2023-04-10T19:51:25.215Z,48.05
2023-04-10T19:56:27.729Z,48.40
2023-04-10T20:01:29.593Z,48.50
2023-04-10T20:06:32.711Z,48.70
2023-04-10T20:11:34.471Z,48.64
2023-04-10T20:16:36.692Z,48.73
2023-04-10T20:21:39.876Z,48.69
2023-04-10T20:26:41.716Z,48.99
2023-04-10T20:31:44.036Z,49.16
2023-04-10T20:36:47.157Z,49.13
2023-04-10T20:41:48.844Z,49.24
2023-04-10T20:46:50.824Z,49.36
2023-04-10T20:51:54.013Z,49.31
2023-04-10T20:56:59.844Z,49.17
2023-04-10T21:02:01.723Z,48.92
2023-04-10T21:07:04.882Z,48.90
2023-04-10T21:12:06.804Z,48.95
2023-04-10T21:17:08.551Z,48.95
2023-04-10T21:22:11.564Z,48.78
2023-04-10T21:27:13.499Z,48.73
2023-04-10T21:32:15.272Z,48.27
2023-04-10T21:37:18.388Z,48.03
2023-04-10T21:42:20.120Z,48.18
2023-04-10T21:47:21.859Z,48.62
2023-04-10T21:52:25.135Z,48.17
2023-04-10T21:57:26.842Z,48.38
2023-04-10T22:02:28.716Z,47.83
2023-04-10T22:07:31.939Z,47.31
2023-04-10T22:12:33.667Z,46.74
2023-04-10T22:17:35.418Z,48.05
2023-04-10T22:22:38.496Z,49.90
2023-04-10T22:27:40.246Z,50.40
2023-04-10T22:32:42.030Z,51.00
2023-04-10T22:37:45.113Z,51.93
2023-04-10T22:42:48.384Z,54.19
2023-04-10T22:47:50.215Z,55.30
2023-04-10T22:52:53.288Z,56.15
2023-04-10T22:57:54.963Z,56.15
2023-04-10T23:02:56.785Z,57.21
2023-04-10T23:07:59.909Z,57.29
2023-04-10T23:13:01.856Z,58.49
2023-04-10T23:18:03.882Z,59.40
2023-04-10T23:23:06.942Z,62.55
2023-04-10T23:28:08.831Z,65.52
2023-04-10T23:33:10.794Z,67.68
2023-04-10T23:38:13.900Z,69.80
2023-04-10T23:43:15.619Z,70.92
2023-04-10T23:48:17.328Z,72.93
2023-04-10T23:53:20.859Z,76.21
2023-04-10T23:58:22.584Z,78.79
